createdAt,value
2016-01-05T00:02:00.678Z,-7.5
2016-01-05T00:02:59.461Z,-7.5
2016-01-05T00:04:00.260Z,-7.5
2016-01-05T00:05:01.075Z,-7.5
2016-01-05T00:06:02.141Z,-7.5
2016-01-05T00:08:04.286Z,-7.5
2016-01-05T00:09:05.352Z,-7.5
2016-01-05T00:10:06.433Z,-7.5
2016-01-05T00:11:07.497Z,-7.5
2016-01-05T00:12:08.613Z,-7.5
2016-01-05T00:13:10.412Z,-7.6
2016-01-05T00:14:11.477Z,-7.6
2016-01-05T00:15:12.542Z,-7.6
2016-01-05T00:16:13.857Z,-7.5
2016-01-05T00:17:14.923Z,-7.5
2016-01-05T00:18:16.004Z,-7.5
2016-01-05T00:19:17.068Z,-7.5
2016-01-05T00:20:18.134Z,-7.5
2016-01-05T00:21:19.199Z,-7.5
2016-01-05T00:22:20.327Z,-7.4
2016-01-05T00:23:22.112Z,-7.3
2016-01-05T00:24:23.176Z,-7.3
2016-01-05T00:25:24.242Z,-7.2
2016-01-05T00:26:25.057Z,-7.3
2016-01-05T00:27:25.606Z,-7.3
2016-01-05T00:28:26.421Z,-7.4
2016-01-05T00:29:27.284Z,-7.3
2016-01-05T00:30:28.067Z,-7.4
2016-01-05T00:31:28.868Z,-7.4
2016-01-05T00:32:29.745Z,-7.4
2016-01-05T00:33:31.517Z,-7.5
2016-01-05T00:34:32.302Z,-7.4
2016-01-05T00:35:33.133Z,-7.4
2016-01-05T00:36:33.947Z,-7.4
2016-01-05T00:37:34.747Z,-7.4
2016-01-05T00:38:35.547Z,-7.5
2016-01-05T00:39:36.363Z,-7.4
2016-01-05T00:40:37.177Z,-7.4
2016-01-05T00:41:40.993Z,-7.5
2016-01-05T00:42:41.855Z,-7.5
2016-01-05T00:43:40.624Z,-7.5
2016-01-05T00:44:41.469Z,-7.5
2016-01-05T00:45:42.519Z,-7.5
2016-01-05T00:46:43.584Z,-7.5
2016-01-05T00:47:44.665Z,-7.5
2016-01-05T00:49:46.780Z,-7.5
2016-01-05T00:50:47.846Z,-7.5
2016-01-05T00:51:48.941Z,-7.5
2016-01-05T00:52:50.038Z,-7.4
2016-01-05T00:53:51.822Z,-7.4
2016-01-05T00:54:52.887Z,-7.4
2016-01-05T00:55:53.952Z,-7.4
2016-01-05T00:56:54.799Z,-7.4
2016-01-05T00:57:55.864Z,-7.5
2016-01-05T00:58:59.648Z,-7.5
2016-01-05T00:59:57.448Z,-7.5
2016-01-05T01:00:58.544Z,-7.5
2016-01-05T01:02:02.610Z,-7.5
2016-01-05T01:03:00.971Z,-7.6
2016-01-05T01:04:02.755Z,-7.6
2016-01-05T01:05:04.071Z,-7.5
2016-01-05T01:06:05.401Z,-7.5
2016-01-05T01:07:06.732Z,-7.5
2016-01-05T01:08:08.079Z,-7.5
2016-01-05T01:09:09.113Z,-7.5
2016-01-05T01:10:10.459Z,-7.5
2016-01-05T01:11:11.509Z,-7.5
2016-01-05T01:12:12.575Z,-7.5
2016-01-05T01:13:13.967Z,-7.5
2016-01-05T01:14:15.767Z,-7.5
2016-01-05T01:15:17.097Z,-7.5
2016-01-05T01:16:18.381Z,-7.5
2016-01-05T01:17:19.759Z,-7.5
2016-01-05T01:18:21.044Z,-7.5
2016-01-05T01:19:22.358Z,-7.5
2016-01-05T01:20:23.705Z,-7.5
2016-01-05T01:21:28.009Z,-7.5
2016-01-05T01:22:26.340Z,-7.5
2016-01-05T01:23:27.967Z,-7.4
2016-01-05T01:24:29.751Z,-7.3
2016-01-05T01:25:34.332Z,-7.3
2016-01-05T01:26:32.648Z,-7.3
2016-01-05T01:27:33.728Z,-7.2
2016-01-05T01:28:35.043Z,-7.2
2016-01-05T01:29:36.373Z,-7.2
2016-01-05T01:30:37.439Z,-7.2
2016-01-05T01:32:39.600Z,-7.2
2016-01-05T01:33:40.979Z,-7.2
2016-01-05T01:35:44.047Z,-7.2
2016-01-05T01:36:45.128Z,-7.2
2016-01-05T01:37:46.442Z,-7.2
2016-01-05T01:38:47.508Z,-7.2
2016-01-05T01:39:48.573Z,-7.2
2016-01-05T01:40:49.638Z,-7.3
2016-01-05T01:41:50.719Z,-7.3
2016-01-05T01:42:51.816Z,-7.3
2016-01-05T01:43:55.915Z,-7.3
2016-01-05T01:44:54.681Z,-7.3
2016-01-05T01:45:56.011Z,-7.3
2016-01-05T01:46:57.327Z,-7.3
2016-01-05T01:47:58.660Z,-7.3
2016-01-05T01:48:59.975Z,-7.2
2016-01-05T01:50:01.306Z,-7.2
2016-01-05T01:51:02.653Z,-7.2
2016-01-05T01:52:03.952Z,-7.2
2016-01-05T01:53:05.299Z,-7.2
2016-01-05T01:54:06.395Z,-7.2
2016-01-05T01:55:08.180Z,-7.3
2016-01-05T01:56:09.619Z,-7.2
2016-01-05T01:57:10.825Z,-7.2
2016-01-05T01:58:12.141Z,-7.2
2016-01-05T01:59:16.471Z,-7.1
2016-01-05T02:00:14.818Z,-7.1
2016-01-05T02:01:16.132Z,-7.1
2016-01-05T02:02:17.432Z,-7.1
2016-01-05T02:03:18.497Z,-7.2
2016-01-05T02:04:19.876Z,-7.2
2016-01-05T02:05:21.659Z,-7.1
2016-01-05T02:06:23.006Z,-7.1
2016-01-05T02:07:24.306Z,-7.1
2016-01-05T02:08:25.392Z,-7.1
2016-01-05T02:09:26.415Z,-7.1
2016-01-05T02:10:27.203Z,-7.2
2016-01-05T02:11:28.008Z,-7.3
2016-01-05T02:12:28.812Z,-7.2
2016-01-05T02:13:30.123Z,-7.2
2016-01-05T02:14:31.513Z,-7.1
2016-01-05T02:15:33.277Z,-7.1
2016-01-05T02:16:34.604Z,-7.1
2016-01-05T02:17:35.666Z,-7.2
2016-01-05T02:18:36.479Z,-7.2
2016-01-05T02:19:37.543Z,-7.3
2016-01-05T02:20:38.622Z,-7.3
2016-01-05T02:21:39.921Z,-7.2
2016-01-05T02:22:41.250Z,-7.2
2016-01-05T02:23:42.564Z,-7.3
2016-01-05T02:24:43.691Z,-7.3
2016-01-05T02:25:45.475Z,-7.3
2016-01-05T02:26:46.790Z,-7.3
2016-01-05T02:27:48.120Z,-7.3
2016-01-05T02:28:49.436Z,-7.2
2016-01-05T02:29:50.767Z,-7.1
2016-01-05T02:30:52.347Z,-7.1
2016-01-05T02:31:53.663Z,-7
2016-01-05T02:32:54.994Z,-7
2016-01-05T02:33:56.325Z,-7.1
2016-01-05T02:34:57.436Z,-7.1
2016-01-05T02:35:59.220Z,-7.1
2016-01-05T02:37:00.286Z,-7.1
2016-01-05T02:38:01.366Z,-7.2
2016-01-05T02:39:02.432Z,-7.1
2016-01-05T02:40:03.747Z,-7.1
2016-01-05T02:41:05.093Z,-7.1
2016-01-05T02:42:06.408Z,-7.1
2016-01-05T02:43:07.709Z,-7.1
2016-01-05T02:44:08.804Z,-7.1
2016-01-05T02:45:10.151Z,-7.1
2016-01-05T02:46:11.936Z,-7.1
2016-01-05T02:47:13.250Z,-7.1
2016-01-05T02:48:14.566Z,-7.1
2016-01-05T02:49:15.630Z,-7.2
2016-01-05T02:50:16.712Z,-7.2
2016-01-05T02:51:18.027Z,-7.2
2016-01-05T02:52:19.357Z,-7.2
2016-01-05T02:53:20.688Z,-7.2
2016-01-05T02:54:22.003Z,-7.2
2016-01-05T02:55:26.396Z,-7.2
2016-01-05T02:56:25.165Z,-7.2
2016-01-05T02:57:26.512Z,-7.1
2016-01-05T02:58:27.812Z,-7.1
2016-01-05T02:59:29.142Z,-7.1
2016-01-05T03:00:33.492Z,-7.1
2016-01-05T03:01:31.776Z,-7.2
2016-01-05T03:02:33.106Z,-7.2
2016-01-05T03:03:34.421Z,-7.2
2016-01-05T03:04:35.783Z,-7.2
2016-01-05T03:05:37.161Z,-7.1
2016-01-05T03:06:38.914Z,-7.1
2016-01-05T03:07:40.228Z,-7
2016-01-05T03:08:41.560Z,-7
2016-01-05T03:09:42.875Z,-7.1
2016-01-05T03:10:43.940Z,-7.1
2016-01-05T03:11:45.271Z,-7.1
2016-01-05T03:12:46.586Z,-7.1
2016-01-05T03:13:47.652Z,-7.1
2016-01-05T03:14:48.716Z,-7.1
2016-01-05T03:15:49.844Z,-7.1
2016-01-05T03:16:51.660Z,-7.1
2016-01-05T03:17:52.693Z,-7.1
2016-01-05T03:18:53.775Z,-7.1
2016-01-05T03:19:54.839Z,-7.1
2016-01-05T03:20:55.888Z,-7.1
2016-01-05T03:21:56.985Z,-7.1
2016-01-05T03:22:58.035Z,-7.1
2016-01-05T03:23:59.085Z,-7.1
2016-01-05T03:24:59.915Z,-7.1
2016-01-05T03:26:00.777Z,-7.1
2016-01-05T03:27:02.562Z,-7.2
2016-01-05T03:28:03.360Z,-7.2
2016-01-05T03:29:04.426Z,-7.2
2016-01-05T03:30:05.507Z,-7.2
2016-01-05T03:31:06.573Z,-7.2
2016-01-05T03:32:07.637Z,-7.1
2016-01-05T03:33:08.953Z,-7.2
2016-01-05T03:34:10.018Z,-7.2
2016-01-05T03:35:11.083Z,-7.2
2016-01-05T03:36:12.211Z,-7.2
2016-01-05T03:37:13.995Z,-7.2
2016-01-05T03:38:15.060Z,-7.2
2016-01-05T03:39:16.375Z,-7.3
2016-01-05T03:40:17.440Z,-7.3
2016-01-05T03:41:18.521Z,-7.3
2016-01-05T03:42:19.586Z,-7.4
2016-01-05T03:43:20.901Z,-7.4
2016-01-05T03:44:22.233Z,-7.3
2016-01-05T03:45:23.548Z,-7.3
2016-01-05T03:46:28.191Z,-7.3
2016-01-05T03:47:26.975Z,-7.3
2016-01-05T03:48:28.821Z,-7.3
2016-01-05T03:49:30.653Z,-7.2
2016-01-05T03:50:32.483Z,-7.2
2016-01-05T03:51:34.314Z,-7.2
2016-01-05T03:52:36.160Z,-7.2
2016-01-05T03:53:37.741Z,-7.3
2016-01-05T03:54:39.572Z,-7.3
2016-01-05T03:55:41.388Z,-7.3
2016-01-05T03:56:46.296Z,-7.3
2016-01-05T03:57:45.080Z,-7.3
2016-01-05T03:58:46.910Z,-7.3
2016-01-05T03:59:48.760Z,-7.3
2016-01-05T04:00:53.590Z,-7.3
2016-01-05T04:01:52.421Z,-7.3
2016-01-05T04:02:54.268Z,-7.2
2016-01-05T04:03:56.115Z,-7.2
2016-01-05T04:04:57.929Z,-7.2
2016-01-05T04:05:59.793Z,-7.2
2016-01-05T04:07:01.670Z,-7.2
2016-01-05T04:08:03.453Z,-7.1
2016-01-05T04:09:05.284Z,-7.2
2016-01-05T04:10:06.865Z,-7.2
2016-01-05T04:11:08.446Z,-7.2
2016-01-05T04:12:10.026Z,-7.2
2016-01-05T04:13:11.592Z,-7.2
2016-01-05T04:14:13.173Z,-7.3
2016-01-05T04:15:14.754Z,-7.2
2016-01-05T04:16:16.334Z,-7.2
2016-01-05T04:17:17.978Z,-7.3
2016-01-05T04:19:21.342Z,-7.3
2016-01-05T04:20:23.173Z,-7.3
2016-01-05T04:22:26.851Z,-7.4
2016-01-05T04:23:28.947Z,-7.4
2016-01-05T04:24:31.278Z,-7.4
2016-01-05T04:25:29.797Z,-7.4
2016-01-05T04:26:28.549Z,-7.4
2016-01-05T04:27:27.364Z,-7.3
2016-01-05T04:28:29.148Z,-7.3
2016-01-05T04:29:27.823Z,-7.3
2016-01-05T04:31:24.641Z,-7.2
2016-01-05T04:32:23.143Z,-7.2
2016-01-05T04:33:21.647Z,-7.2
2016-01-05T04:34:23.993Z,-7.2
2016-01-05T04:35:22.746Z,-7.3
2016-01-05T04:36:21.794Z,-7.3
2016-01-05T04:37:21.111Z,-7.3
2016-01-05T04:38:22.879Z,-7.3
2016-01-05T04:39:22.678Z,-7.4
2016-01-05T04:40:22.463Z,-7.4
2016-01-05T04:41:21.981Z,-7.5
2016-01-05T04:42:21.515Z,-7.5
2016-01-05T04:43:21.283Z,-7.5
2016-01-05T04:44:21.082Z,-7.5
2016-01-05T04:45:20.866Z,-7.6
2016-01-05T04:46:20.901Z,-7.6
2016-01-05T04:47:21.012Z,-7.6
2016-01-05T04:48:22.781Z,-7.6
2016-01-05T04:49:23.096Z,-7.6
2016-01-05T04:50:23.380Z,-7.6
2016-01-05T04:51:23.679Z,-7.6
2016-01-05T04:52:23.979Z,-7.5
2016-01-05T04:53:24.279Z,-7.5
2016-01-05T04:54:24.578Z,-7.5
2016-01-05T04:55:24.612Z,-7.5
2016-01-05T04:56:24.396Z,-7.4
2016-01-05T04:57:24.508Z,-7.4
2016-01-05T04:58:26.276Z,-7.4
2016-01-05T04:59:26.062Z,-7.4
2016-01-05T05:00:25.595Z,-7.4
2016-01-05T05:01:25.129Z,-7.4
2016-01-05T05:02:24.632Z,-7.3
2016-01-05T05:03:24.165Z,-7.3
2016-01-05T05:04:23.700Z,-7.3
2016-01-05T05:05:22.965Z,-7.3
2016-01-05T05:06:22.233Z,-7.3
2016-01-05T05:07:21.548Z,-7.3
2016-01-05T05:08:23.347Z,-7.4
2016-01-05T05:09:22.617Z,-7.4
2016-01-05T05:10:21.900Z,-7.4
2016-01-05T05:11:21.419Z,-7.4
2016-01-05T05:12:20.953Z,-7.4
2016-01-05T05:13:20.206Z,-7.5
2016-01-05T05:14:19.755Z,-7.5
2016-01-05T05:15:19.289Z,-7.5
2016-01-05T05:16:19.058Z,-7.5
2016-01-05T05:17:18.654Z,-7.5
2016-01-05T05:18:20.422Z,-7.5
2016-01-05T05:19:20.221Z,-7.5
2016-01-05T05:20:19.991Z,-7.5
2016-01-05T05:21:19.789Z,-7.6
2016-01-05T05:22:19.574Z,-7.6
2016-01-05T05:23:22.623Z,-7.5
2016-01-05T05:24:19.657Z,-7.5
2016-01-05T05:25:19.957Z,-7.4
2016-01-05T05:26:19.991Z,-7.3
2016-01-05T05:27:20.446Z,-7.3
2016-01-05T05:28:21.605Z,-7.3
2016-01-05T05:29:21.404Z,-7.3
2016-01-05T05:30:21.173Z,-7.3
2016-01-05T05:31:20.957Z,-7.3
2016-01-05T05:32:20.491Z,-7.3
2016-01-05T05:33:19.776Z,-7.4
2016-01-05T05:34:19.029Z,-7.4
2016-01-05T05:35:18.312Z,-7.4
2016-01-05T05:36:17.830Z,-7.4
2016-01-05T05:37:17.162Z,-7.4
2016-01-05T05:38:18.930Z,-7.3
2016-01-05T05:39:18.213Z,-7.4
2016-01-05T05:40:17.498Z,-7.4
2016-01-05T05:41:16.750Z,-7.4
2016-01-05T05:42:16.018Z,-7.4
2016-01-05T05:43:15.303Z,-7.4
2016-01-05T05:44:14.571Z,-7.4
2016-01-05T05:45:13.840Z,-7.4
2016-01-05T05:47:12.689Z,-7.3
2016-01-05T05:48:14.473Z,-7.4
2016-01-05T05:49:14.006Z,-7.4
2016-01-05T05:50:13.539Z,-7.4
2016-01-05T05:51:13.075Z,-7.3
2016-01-05T05:52:12.843Z,-7.3
2016-01-05T05:53:12.111Z,-7.4
2016-01-05T05:54:11.395Z,-7.4
2016-01-05T05:55:10.914Z,-7.4
2016-01-05T05:56:10.448Z,-7.4
2016-01-05T05:57:13.294Z,-7.4
2016-01-05T05:58:12.078Z,-7.4
2016-01-05T05:59:11.847Z,-7.4
2016-01-05T06:01:12.835Z,-7.3
2016-01-05T06:02:11.198Z,-7.3
2016-01-05T06:03:10.997Z,-7.3
2016-01-05T06:04:13.766Z,-7.3
2016-01-05T06:05:10.566Z,-7.4
2016-01-05T06:06:10.350Z,-7.5
2016-01-05T06:07:13.196Z,-7.5
2016-01-05T06:08:11.979Z,-7.4
2016-01-05T06:09:12.014Z,-7.4
2016-01-05T06:10:12.297Z,-7.3
2016-01-05T06:11:12.363Z,-7.4
2016-01-05T06:12:12.146Z,-7.4
2016-01-05T06:13:11.930Z,-7.5
2016-01-05T06:14:11.715Z,-7.5
2016-01-05T06:15:11.499Z,-7.5
2016-01-05T06:16:11.282Z,-7.5
2016-01-05T06:17:11.379Z,-7.5
2016-01-05T06:18:13.163Z,-7.6
2016-01-05T06:19:12.947Z,-7.6
2016-01-05T06:20:12.731Z,-7.7
2016-01-05T06:21:12.781Z,-7.7
2016-01-05T06:22:12.829Z,-7.7
2016-01-05T06:23:13.115Z,-7.6
2016-01-05T06:24:13.414Z,-7.6
2016-01-05T06:25:13.713Z,-7.5
2016-01-05T06:27:14.360Z,-7.5
2016-01-05T06:28:16.143Z,-7.6
2016-01-05T06:29:15.943Z,-7.6
2016-01-05T06:30:17.134Z,-7.6
2016-01-05T06:31:15.761Z,-7.5
2016-01-05T06:32:15.811Z,-7.5
2016-01-05T06:33:15.845Z,-7.4
2016-01-05T06:34:15.626Z,-7.4
2016-01-05T06:35:15.409Z,-7.4
2016-01-05T06:36:15.194Z,-7.3
2016-01-05T06:37:15.024Z,-7.3
2016-01-05T06:38:16.811Z,-7.3
2016-01-05T06:39:19.079Z,-7.4
2016-01-05T06:40:15.360Z,-7.4
2016-01-05T06:41:14.628Z,-7.4
2016-01-05T06:42:14.147Z,-7.4
2016-01-05T06:43:13.416Z,-7.4
2016-01-05T06:44:12.700Z,-7.3
2016-01-05T06:46:11.252Z,-7.3
2016-01-05T06:47:10.567Z,-7.3
2016-01-05T06:48:12.352Z,-7.3
2016-01-05T06:49:11.369Z,-7.3
2016-01-05T06:50:10.372Z,-7.3
2016-01-05T06:51:09.405Z,-7.2
2016-01-05T06:52:08.675Z,-7.2
2016-01-05T06:53:07.677Z,-7.2
2016-01-05T06:54:09.742Z,-7.3
2016-01-05T06:55:05.448Z,-7.2
2016-01-05T06:56:04.217Z,-7.3
2016-01-05T06:58:04.815Z,-7.3
2016-01-05T06:59:03.585Z,-7.4
2016-01-05T07:01:01.090Z,-7.5
2016-01-05T07:01:59.842Z,-7.5
2016-01-05T07:02:58.876Z,-7.5
2016-01-05T07:03:57.896Z,-7.5
2016-01-05T07:04:56.897Z,-7.5
2016-01-05T07:05:55.901Z,-7.4
2016-01-05T07:06:54.996Z,-7.4
2016-01-05T07:07:56.765Z,-7.5
2016-01-05T07:08:55.533Z,-7.5
2016-01-05T07:09:54.291Z,-7.5
2016-01-05T07:10:53.058Z,-7.5
2016-01-05T07:11:51.797Z,-7.5
2016-01-05T07:12:50.564Z,-7.6
2016-01-05T07:13:49.317Z,-7.5
2016-01-05T07:14:48.335Z,-7.5
2016-01-05T07:15:47.353Z,-7.5
2016-01-05T07:16:46.170Z,-7.5
2016-01-05T07:17:47.953Z,-7.6
2016-01-05T07:18:46.721Z,-7.5
2016-01-05T07:19:45.474Z,-7.6
2016-01-05T07:20:44.226Z,-7.6
2016-01-05T07:21:42.980Z,-7.6
2016-01-05T07:22:41.747Z,-7.6
2016-01-05T07:23:40.500Z,-7.6
2016-01-05T07:24:39.250Z,-7.6
2016-01-05T07:25:38.019Z,-7.5
2016-01-05T07:26:37.085Z,-7.5
2016-01-05T07:27:38.868Z,-7.5
2016-01-05T07:28:37.620Z,-7.5
2016-01-05T07:29:36.389Z,-7.5
2016-01-05T07:31:36.941Z,-7.5
2016-01-05T07:32:32.663Z,-7.6
2016-01-05T07:33:31.415Z,-7.5
2016-01-05T07:34:30.434Z,-7.6
2016-01-05T07:35:29.467Z,-7.6
2016-01-05T07:36:28.533Z,-7.6
2016-01-05T07:37:30.301Z,-7.6
2016-01-05T07:38:29.320Z,-7.5
2016-01-05T07:39:28.338Z,-7.5
2016-01-05T07:40:27.356Z,-7.5
2016-01-05T07:41:26.376Z,-7.5
2016-01-05T07:42:25.392Z,-7.5
2016-01-05T07:43:24.395Z,-7.5
2016-01-05T07:44:23.414Z,-7.4
2016-01-05T07:45:22.698Z,-7.5
2016-01-05T07:46:24.794Z,-7.4
2016-01-05T07:47:23.547Z,-7.4
2016-01-05T07:48:22.565Z,-7.5
2016-01-05T07:49:21.583Z,-7.4
2016-01-05T07:50:20.336Z,-7.5
2016-01-05T07:51:19.089Z,-7.5
2016-01-05T07:52:17.858Z,-7.5
2016-01-05T07:53:16.594Z,-7.5
2016-01-05T07:54:15.629Z,-7.5
2016-01-05T07:56:14.228Z,-7.4
2016-01-05T07:57:16.011Z,-7.5
2016-01-05T07:58:15.014Z,-7.3
2016-01-05T07:59:14.032Z,-7.3
2016-01-05T08:00:13.051Z,-7.2
2016-01-05T08:01:12.069Z,-7.3
2016-01-05T08:02:11.088Z,-7.2
2016-01-05T08:03:10.105Z,-7.3
2016-01-05T08:04:11.874Z,-7.4
2016-01-05T08:05:07.627Z,-7.4
2016-01-05T08:06:06.427Z,-7.3
2016-01-05T08:07:08.210Z,-7.3
2016-01-05T08:08:06.963Z,-7.4
2016-01-05T08:09:05.732Z,-7.5
2016-01-05T08:10:07.766Z,-7.4
2016-01-05T08:11:06.800Z,-7.4
2016-01-05T08:12:03.037Z,-7.5
2016-01-05T08:13:02.304Z,-7.5
2016-01-05T08:14:01.323Z,-7.4
2016-01-05T08:15:00.342Z,-7.4
2016-01-05T08:15:59.404Z,-7.5
2016-01-05T08:18:00.206Z,-7.4
2016-01-05T08:18:59.475Z,-7.4
2016-01-05T08:19:58.742Z,-7.3
2016-01-05T08:20:58.011Z,-7.2
2016-01-05T08:21:57.295Z,-7.1
2016-01-05T08:22:56.564Z,-7.1
2016-01-05T08:23:55.832Z,-7.1
2016-01-05T08:24:57.851Z,-7.1
2016-01-05T08:25:53.650Z,-7.1
2016-01-05T08:26:55.450Z,-7.1
2016-01-05T08:27:54.202Z,-7.1
2016-01-05T08:28:52.955Z,-7
2016-01-05T08:29:51.708Z,-6.9
2016-01-05T08:30:50.475Z,-6.9
2016-01-05T08:31:48.979Z,-7
2016-01-05T08:32:51.325Z,-7.1
2016-01-05T08:33:53.671Z,-7.1
2016-01-05T08:34:56.018Z,-7.1
2016-01-05T08:35:54.583Z,-7.1
2016-01-05T08:36:56.336Z,-7
2016-01-05T08:37:54.869Z,-7
2016-01-05T08:38:53.357Z,-7
2016-01-05T08:39:51.859Z,-7.1
2016-01-05T08:40:50.377Z,-7.1
2016-01-05T08:41:48.849Z,-7.1
2016-01-05T08:42:47.352Z,-7
2016-01-05T08:43:45.871Z,-7
2016-01-05T08:44:44.357Z,-7.1
2016-01-05T08:45:42.923Z,-7.1
2016-01-05T08:46:44.691Z,-7.1
2016-01-05T08:47:43.194Z,-7.1
2016-01-05T08:48:41.977Z,-7.1
2016-01-05T08:49:40.465Z,-7.1
2016-01-05T08:50:39.217Z,-7.1
2016-01-05T08:51:37.970Z,-7.1
2016-01-05T08:52:36.738Z,-7.1
2016-01-05T08:53:35.226Z,-7.1
2016-01-05T08:54:33.994Z,-7.1
2016-01-05T08:55:32.825Z,-7.1
2016-01-05T08:56:34.593Z,-7.1
2016-01-05T08:57:36.362Z,-7.1
2016-01-05T08:58:32.083Z,-7.1
2016-01-05T08:59:30.867Z,-7.1
2016-01-05T09:01:28.106Z,-7.1
2016-01-05T09:02:26.860Z,-7.1
2016-01-05T09:03:25.627Z,-7
2016-01-05T09:04:24.364Z,-6.9
2016-01-05T09:05:23.195Z,-6.9
2016-01-05T09:06:24.995Z,-6.9
2016-01-05T09:07:23.764Z,-6.9
2016-01-05T09:08:22.217Z,-6.9
2016-01-05T09:09:20.750Z,-6.9
2016-01-05T09:10:23.081Z,-7
2016-01-05T09:11:28.462Z,-7
2016-01-05T09:12:23.931Z,-7
2016-01-05T09:13:22.418Z,-6.9
2016-01-05T09:14:20.920Z,-6.9
2016-01-05T09:16:21.255Z,-6.9
2016-01-05T09:17:19.788Z,-6.9
2016-01-05T09:18:22.150Z,-6.9
2016-01-05T09:19:24.466Z,-7
2016-01-05T09:20:26.844Z,-6.9
2016-01-05T09:21:25.331Z,-6.9
2016-01-05T09:22:24.083Z,-6.9
2016-01-05T09:23:22.601Z,-6.9
2016-01-05T09:24:24.932Z,-6.9
2016-01-05T09:25:27.341Z,-6.9
2016-01-05T09:26:29.110Z,-6.9
2016-01-05T09:27:31.471Z,-6.9
2016-01-05T09:28:33.818Z,-6.8
2016-01-05T09:29:36.149Z,-6.9
2016-01-05T09:30:34.652Z,-6.8
2016-01-05T09:31:33.654Z,-6.7
2016-01-05T09:32:32.673Z,-6.7
2016-01-05T09:33:32.206Z,-6.7
2016-01-05T09:34:31.990Z,-6.6
2016-01-05T09:35:31.337Z,-6.6
2016-01-05T09:36:33.090Z,-6.6
2016-01-05T09:37:31.843Z,-6.7
2016-01-05T09:38:30.611Z,-6.6
2016-01-05T09:39:29.098Z,-6.6
2016-01-05T09:40:27.600Z,-6.6
2016-01-05T09:41:26.118Z,-6.6
2016-01-05T09:42:28.465Z,-6.6
2016-01-05T09:43:30.811Z,-6.6
2016-01-05T09:44:33.158Z,-6.6
2016-01-05T09:45:35.567Z,-6.6
2016-01-05T09:46:37.351Z,-6.7
2016-01-05T09:47:39.417Z,-6.7
2016-01-05T09:48:41.512Z,-6.7
2016-01-05T09:49:43.862Z,-6.7
2016-01-05T09:50:46.067Z,-6.7
2016-01-05T09:51:48.038Z,-6.7
2016-01-05T09:52:50.417Z,-6.7
2016-01-05T09:53:52.497Z,-6.8
2016-01-05T09:54:54.610Z,-6.8
2016-01-05T09:55:56.722Z,-6.8
2016-01-05T09:56:58.537Z,-6.8
2016-01-05T09:58:00.868Z,-6.9
2016-01-05T09:59:03.229Z,-6.8
2016-01-05T10:00:05.561Z,-6.8
2016-01-05T10:01:07.641Z,-6.9
2016-01-05T10:02:10.004Z,-6.8
2016-01-05T10:03:12.335Z,-6.7
2016-01-05T10:04:14.696Z,-6.7
2016-01-05T10:05:17.043Z,-6.7
2016-01-05T10:06:19.202Z,-6.7
2016-01-05T10:07:20.971Z,-6.7
2016-01-05T10:08:23.332Z,-6.7
2016-01-05T10:09:25.398Z,-6.6
2016-01-05T10:10:27.493Z,-6.6
2016-01-05T10:11:29.606Z,-6.5
2016-01-05T10:12:31.421Z,-6.6
2016-01-05T10:13:33.252Z,-6.6
2016-01-05T10:14:35.083Z,-6.6
2016-01-05T10:15:37.179Z,-6.7
2016-01-05T10:16:39.323Z,-6.6
2016-01-05T10:17:41.106Z,-6.7
2016-01-05T10:18:42.953Z,-6.6
2016-01-05T10:19:44.784Z,-6.7
2016-01-05T10:20:46.615Z,-6.6
2016-01-05T10:21:48.695Z,-6.5
2016-01-05T10:22:50.792Z,-6.5
2016-01-05T10:23:52.623Z,-6.6
2016-01-05T10:24:54.453Z,-6.6
2016-01-05T10:25:56.304Z,-6.6
2016-01-05T10:26:58.197Z,-6.6
2016-01-05T10:27:59.982Z,-6.6
2016-01-05T10:29:01.796Z,-6.5
2016-01-05T10:30:03.627Z,-6.5
2016-01-05T10:31:05.457Z,-6.4
2016-01-05T10:32:07.304Z,-6.4
2016-01-05T10:33:09.135Z,-6.5
2016-01-05T10:34:10.966Z,-6.4
2016-01-05T10:35:12.797Z,-6.4
2016-01-05T10:36:14.628Z,-6.3
2016-01-05T10:37:16.536Z,-6.3
2016-01-05T10:38:18.306Z,-6.3
2016-01-05T10:39:20.136Z,-6.3
2016-01-05T10:40:21.716Z,-6.3
2016-01-05T10:41:23.281Z,-6.3
2016-01-05T10:42:24.862Z,-6.3
2016-01-05T10:43:26.444Z,-6.3
2016-01-05T10:44:27.774Z,-6.3
2016-01-05T10:45:29.356Z,-6.3
2016-01-05T10:46:30.920Z,-6.3
2016-01-05T10:47:32.298Z,-6.3
2016-01-05T10:48:34.097Z,-6.3
2016-01-05T10:49:35.397Z,-6.3
2016-01-05T10:50:36.713Z,-6.2
2016-01-05T10:51:38.294Z,-6.2
2016-01-05T10:52:40.155Z,-6.1
2016-01-05T10:53:41.986Z,-6
2016-01-05T10:54:44.052Z,-5.9
2016-01-05T10:55:45.897Z,-6
2016-01-05T10:56:47.494Z,-6
2016-01-05T10:57:48.841Z,-6
2016-01-05T10:58:50.625Z,-6.1
2016-01-05T10:59:51.940Z,-6.1
2016-01-05T11:00:53.255Z,-6.1
2016-01-05T11:01:54.585Z,-6.1
2016-01-05T11:02:55.885Z,-6.1
2016-01-05T11:03:57.216Z,-6.1
2016-01-05T11:04:58.547Z,-6.1
2016-01-05T11:05:59.862Z,-6.1
2016-01-05T11:07:01.177Z,-6.1
2016-01-05T11:08:02.554Z,-6
2016-01-05T11:09:04.323Z,-6.1
2016-01-05T11:10:05.435Z,-6.2
2016-01-05T11:11:06.454Z,-6.2
2016-01-05T11:12:07.793Z,-6.2
2016-01-05T11:13:09.092Z,-6.2
2016-01-05T11:14:10.397Z,-6.1
2016-01-05T11:15:11.715Z,-6.1
2016-01-05T11:16:13.015Z,-6.1
2016-01-05T11:17:14.317Z,-6.1
2016-01-05T11:18:15.682Z,-6.1
2016-01-05T11:19:17.459Z,-6
2016-01-05T11:20:19.051Z,-6
2016-01-05T11:21:21.127Z,-6
2016-01-05T11:22:23.212Z,-6
2016-01-05T11:23:24.773Z,-6
2016-01-05T11:24:26.077Z,-6.1
2016-01-05T11:25:27.630Z,-6.1
2016-01-05T11:26:28.710Z,-6.2
2016-01-05T11:27:30.023Z,-6.1
2016-01-05T11:28:31.664Z,-6.1
2016-01-05T11:29:33.432Z,-6.1
2016-01-05T11:30:34.763Z,-6.1
2016-01-05T11:31:36.076Z,-6.1
2016-01-05T11:32:37.656Z,-6
2016-01-05T11:33:39.221Z,-6.1
2016-01-05T11:34:40.536Z,-6.1
2016-01-05T11:35:42.116Z,-6.1
2016-01-05T11:36:43.697Z,-6.1
2016-01-05T11:37:45.012Z,-6.1
2016-01-05T11:38:46.389Z,-6.1
2016-01-05T11:39:48.173Z,-6.2
2016-01-05T11:40:49.488Z,-6.2
2016-01-05T11:41:51.069Z,-6.2
2016-01-05T11:42:52.384Z,-6.2
2016-01-05T11:43:53.949Z,-6.2
2016-01-05T11:44:55.530Z,-6.3
2016-01-05T11:45:57.111Z,-6.3
2016-01-05T11:46:58.708Z,-6.2
2016-01-05T11:48:00.288Z,-6.2
2016-01-05T11:49:02.150Z,-6.1
2016-01-05T11:50:03.935Z,-6.1
2016-01-05T11:51:05.516Z,-6.1
2016-01-05T11:52:07.097Z,-6
2016-01-05T11:53:08.677Z,-6
2016-01-05T11:54:10.227Z,-5.9
2016-01-05T11:55:11.558Z,-5.9
2016-01-05T11:56:12.872Z,-5.9
2016-01-05T11:57:14.219Z,-5.9
2016-01-05T11:58:15.518Z,-5.9
2016-01-05T11:59:16.896Z,-5.9
2016-01-05T12:00:18.665Z,-5.9
2016-01-05T12:01:19.995Z,-5.9
2016-01-05T12:02:21.311Z,-5.9
2016-01-05T12:03:22.115Z,-5.9
2016-01-05T12:04:22.931Z,-5.9
2016-01-05T12:05:23.996Z,-6
2016-01-05T12:06:25.061Z,-6
2016-01-05T12:07:26.109Z,-6
2016-01-05T12:08:27.191Z,-6
2016-01-05T12:09:28.553Z,-6
2016-01-05T12:10:30.322Z,-5.9
2016-01-05T12:11:31.637Z,-5.9
2016-01-05T12:12:32.968Z,-5.9
2016-01-05T12:13:34.283Z,-5.8
2016-01-05T12:14:35.598Z,-5.8
2016-01-05T12:15:36.928Z,-5.8
2016-01-05T12:16:38.245Z,-5.7
2016-01-05T12:17:39.559Z,-5.6
2016-01-05T12:18:40.908Z,-5.6
2016-01-05T12:19:42.005Z,-5.6
2016-01-05T12:20:43.789Z,-5.6
2016-01-05T12:21:44.572Z,-5.6
2016-01-05T12:22:45.403Z,-5.6
2016-01-05T12:23:46.188Z,-5.6
2016-01-05T12:24:47.003Z,-5.6
2016-01-05T12:25:47.834Z,-5.6
2016-01-05T12:26:48.618Z,-5.6
2016-01-05T12:27:49.417Z,-5.6
2016-01-05T12:28:50.217Z,-5.6
2016-01-05T12:29:51.079Z,-5.6
2016-01-05T12:30:52.863Z,-5.6
2016-01-05T12:31:53.694Z,-5.6
2016-01-05T12:32:54.477Z,-5.5
2016-01-05T12:33:55.277Z,-5.6
2016-01-05T12:34:56.108Z,-5.5
2016-01-05T12:35:56.892Z,-5.6
2016-01-05T12:36:57.441Z,-5.6
2016-01-05T12:37:58.257Z,-5.6
2016-01-05T12:38:59.056Z,-5.6
2016-01-05T12:39:59.919Z,-5.6
2016-01-05T12:41:01.688Z,-5.6
2016-01-05T12:42:02.502Z,-5.7
2016-01-05T12:43:03.303Z,-5.7
2016-01-05T12:44:04.102Z,-5.7
2016-01-05T12:45:04.918Z,-5.7
2016-01-05T12:46:05.716Z,-5.7
2016-01-05T12:47:06.532Z,-5.7
2016-01-05T12:48:07.332Z,-5.7
2016-01-05T12:49:08.132Z,-5.6
2016-01-05T12:50:08.993Z,-5.6
2016-01-05T12:51:10.777Z,-5.6
2016-01-05T12:52:11.576Z,-5.5
2016-01-05T12:53:12.392Z,-5.5
2016-01-05T12:54:13.196Z,-5.6
2016-01-05T12:55:13.746Z,-5.7
2016-01-05T12:56:14.295Z,-5.7
2016-01-05T12:57:15.111Z,-5.6
2016-01-05T12:58:15.895Z,-5.6
2016-01-05T12:59:16.708Z,-5.7
2016-01-05T13:00:17.570Z,-5.6
2016-01-05T13:01:19.354Z,-5.6
2016-01-05T13:02:20.404Z,-5.5
2016-01-05T13:03:21.219Z,-5.5
2016-01-05T13:04:22.018Z,-5.5
2016-01-05T13:05:22.818Z,-5.5
2016-01-05T13:06:23.633Z,-5.5
2016-01-05T13:07:24.434Z,-5.4
2016-01-05T13:08:25.232Z,-5.4
2016-01-05T13:09:25.782Z,-5.4
2016-01-05T13:10:26.659Z,-5.3
2016-01-05T13:11:28.428Z,-5.2
2016-01-05T13:12:29.228Z,-5.2
2016-01-05T13:13:29.778Z,-5.3
2016-01-05T13:14:30.328Z,-5.2
2016-01-05T13:15:30.876Z,-5.3
2016-01-05T13:16:31.176Z,-5.3
2016-01-05T13:17:31.475Z,-5.3
2016-01-05T13:18:31.759Z,-5.3
2016-01-05T13:19:32.044Z,-5.3
2016-01-05T13:20:32.390Z,-5.3
2016-01-05T13:21:34.159Z,-5.3
2016-01-05T13:22:34.458Z,-5.3
2016-01-05T13:23:34.742Z,-5.4
2016-01-05T13:24:35.041Z,-5.3
2016-01-05T13:25:35.325Z,-5.4
2016-01-05T13:26:35.610Z,-5.3
2016-01-05T13:27:36.441Z,-5.3
2016-01-05T13:28:36.208Z,-5.3
2016-01-05T13:29:36.508Z,-5.3
2016-01-05T13:30:36.838Z,-5.3
2016-01-05T13:31:38.623Z,-5.4
2016-01-05T13:32:38.907Z,-5.4
2016-01-05T13:33:39.190Z,-5.3
2016-01-05T13:34:39.491Z,-5.3
2016-01-05T13:35:39.774Z,-5.3
2016-01-05T13:36:39.808Z,-5.3
2016-01-05T13:37:39.843Z,-5.3
2016-01-05T13:38:39.876Z,-5.2
2016-01-05T13:39:39.910Z,-5.3
2016-01-05T13:40:40.006Z,-5.3
2016-01-05T13:41:41.791Z,-5.3
2016-01-05T13:42:41.824Z,-5.3
2016-01-05T13:43:41.593Z,-5.4
2016-01-05T13:44:41.643Z,-5.3
2016-01-05T13:45:41.411Z,-5.4
2016-01-05T13:46:41.210Z,-5.4
2016-01-05T13:47:41.212Z,-5.4
2016-01-05T13:48:41.262Z,-5.3